createdAt,value
2023-04-18T00:00:39.607Z,55.54
2023-04-18T00:01:42.084Z,55.93
2023-04-18T00:02:44.134Z,55.57
2023-04-18T00:03:47.218Z,55.38
2023-04-18T00:04:50.447Z,55.59
2023-04-18T00:05:52.122Z,54.88
2023-04-18T00:06:53.780Z,55.97
2023-04-18T00:07:56.353Z,55.75
2023-04-18T00:08:57.941Z,55.57
2023-04-18T00:09:59.542Z,55.38
2023-04-18T00:11:01.033Z,55.38
2023-04-18T00:12:04.896Z,55.44
2023-04-18T00:13:07.475Z,54.99
2023-04-18T00:14:10.423Z,55.50
2023-04-18T00:15:12.362Z,54.31
2023-04-18T00:16:13.961Z,54.19
2023-04-18T00:17:16.091Z,54.64
2023-04-18T00:18:17.630Z,54.57
2023-04-18T00:19:20.115Z,54.31
2023-04-18T00:20:21.648Z,54.51
2023-04-18T00:21:23.220Z,54.50
2023-04-18T00:22:25.323Z,54.72
2023-04-18T00:23:28.063Z,54.39
2023-04-18T00:24:29.755Z,54.50
2023-04-18T00:25:31.569Z,54.76
2023-04-18T00:26:33.081Z,54.50
2023-04-18T00:27:34.664Z,54.44
2023-04-18T00:28:36.169Z,54.29
2023-04-18T00:29:38.022Z,54.21
2023-04-18T00:30:39.573Z,53.96
2023-04-18T00:31:41.145Z,54.04
2023-04-18T00:32:42.708Z,54.04
2023-04-18T00:33:44.252Z,53.96
2023-04-18T00:34:46.182Z,53.76
2023-04-18T00:35:47.671Z,54.30
2023-04-18T00:36:49.193Z,54.23
2023-04-18T00:37:51.017Z,53.91
2023-04-18T00:38:52.567Z,53.78
2023-04-18T00:39:54.409Z,54.16
2023-04-18T00:40:55.933Z,53.91
2023-04-18T00:41:57.507Z,54.16
2023-04-18T00:42:59.088Z,53.71
2023-04-18T00:44:00.731Z,53.36
2023-04-18T00:45:02.580Z,53.61
2023-04-18T00:46:04.138Z,53.46
2023-04-18T00:47:05.958Z,53.34
2023-04-18T00:48:07.544Z,53.28
2023-04-18T00:49:09.158Z,53.31
2023-04-18T00:50:11.268Z,53.43
2023-04-18T00:51:12.770Z,53.23
2023-04-18T00:52:14.293Z,53.46
2023-04-18T00:53:16.003Z,53.75
2023-04-18T00:54:18.200Z,53.49
2023-04-18T00:55:19.706Z,53.69
2023-04-18T00:56:23.734Z,54.07
2023-04-18T00:57:25.281Z,53.56
2023-04-18T00:58:26.895Z,53.90
2023-04-18T00:59:28.763Z,53.52
2023-04-18T01:00:30.914Z,53.29
2023-04-18T01:01:33.701Z,53.32
2023-04-18T01:02:35.753Z,52.69
2023-04-18T01:03:37.641Z,52.95
2023-04-18T01:04:39.805Z,52.87
2023-04-18T01:05:41.491Z,53.32
2023-04-18T01:06:44.122Z,53.30
2023-04-18T01:07:45.692Z,53.50
2023-04-18T01:08:47.264Z,54.16
2023-04-18T01:09:49.637Z,54.49
2023-04-18T01:10:51.269Z,54.32
2023-04-18T01:11:52.730Z,54.02
2023-04-18T01:13:15.251Z,54.18
2023-04-18T01:14:17.132Z,54.08
2023-04-18T01:15:18.756Z,54.56
2023-04-18T01:16:20.818Z,54.33
2023-04-18T01:17:23.278Z,54.84
2023-04-18T01:18:25.409Z,53.82
2023-04-18T01:19:27.347Z,54.45
2023-04-18T01:20:28.982Z,53.96
2023-04-18T01:21:31.303Z,54.10
2023-04-18T01:22:33.055Z,54.59
2023-04-18T01:23:34.584Z,54.56
2023-04-18T01:24:36.573Z,54.77
2023-04-18T01:25:38.826Z,54.25
2023-04-18T01:26:40.738Z,54.13
2023-04-18T01:27:42.217Z,54.36
2023-04-18T01:28:43.723Z,54.46
2023-04-18T01:29:45.953Z,54.91
2023-04-18T01:30:47.445Z,53.70
2023-04-18T01:31:49.321Z,53.79
2023-04-18T01:32:50.840Z,54.10
2023-04-18T01:33:52.387Z,54.07
2023-04-18T01:34:54.206Z,54.19
2023-04-18T01:35:55.703Z,54.72
2023-04-18T01:36:57.333Z,54.29
2023-04-18T01:37:59.059Z,54.62
2023-04-18T01:39:00.773Z,54.38
2023-04-18T01:40:02.700Z,54.19
2023-04-18T01:41:04.218Z,54.33
2023-04-18T01:42:05.767Z,53.71
2023-04-18T01:43:07.258Z,53.68
2023-04-18T01:44:08.768Z,54.34
2023-04-18T01:45:11.316Z,53.96
2023-04-18T01:46:12.849Z,54.01
2023-04-18T01:47:14.361Z,54.95
2023-04-18T01:48:15.878Z,54.89
2023-04-18T01:49:17.342Z,54.31
2023-04-18T01:50:18.973Z,54.03
2023-04-18T01:51:20.450Z,53.73
2023-04-18T01:52:21.978Z,53.69
2023-04-18T01:53:24.116Z,53.69
2023-04-18T01:54:25.793Z,53.56
2023-04-18T01:55:27.312Z,54.08
2023-04-18T01:56:28.890Z,54.12
2023-04-18T01:57:30.847Z,54.64
2023-04-18T01:58:32.366Z,54.89
2023-04-18T01:59:34.228Z,55.01
2023-04-18T02:00:35.791Z,55.27
2023-04-18T02:01:37.352Z,54.28
2023-04-18T02:02:38.999Z,54.50
2023-04-18T02:03:40.950Z,55.10
2023-04-18T02:04:42.963Z,54.19
2023-04-18T02:05:44.426Z,54.51
2023-04-18T02:06:45.989Z,54.84
2023-04-18T02:07:49.170Z,55.37
2023-04-18T02:08:50.687Z,54.87
2023-04-18T02:09:52.557Z,55.19
2023-04-18T02:10:54.057Z,54.91
2023-04-18T02:11:59.253Z,55.34
2023-04-18T02:13:00.739Z,54.73
2023-04-18T02:14:02.238Z,55.10
2023-04-18T02:15:04.480Z,54.64
2023-04-18T02:16:06.533Z,54.91
2023-04-18T02:17:08.082Z,54.80
2023-04-18T02:18:09.735Z,54.51
2023-04-18T02:19:11.670Z,54.59
2023-04-18T02:20:13.671Z,55.00
2023-04-18T02:21:15.209Z,55.78
2023-04-18T02:22:18.152Z,55.98
2023-04-18T02:23:19.596Z,54.87
2023-04-18T02:24:21.142Z,54.77
2023-04-18T02:25:24.554Z,54.93
2023-04-18T02:26:26.129Z,54.49
2023-04-18T02:27:27.815Z,54.49
2023-04-18T02:28:29.307Z,54.69
2023-04-18T02:29:30.829Z,54.08
2023-04-18T02:30:32.384Z,54.20
2023-04-18T02:31:33.951Z,54.09
2023-04-18T02:32:35.539Z,54.09
2023-04-18T02:33:37.187Z,53.99
2023-04-18T02:34:39.436Z,54.30
2023-04-18T02:35:41.114Z,53.52
2023-04-18T02:36:43.079Z,53.86
2023-04-18T02:37:44.578Z,55.12
2023-04-18T02:38:46.114Z,55.27
2023-04-18T02:39:47.695Z,54.91
2023-04-18T02:40:49.192Z,54.71
2023-04-18T02:41:50.687Z,54.29
2023-04-18T02:42:52.251Z,54.45
2023-04-18T02:43:54.825Z,54.81
2023-04-18T02:44:56.590Z,54.62
2023-04-18T02:45:58.230Z,54.72
2023-04-18T02:46:59.779Z,54.70
2023-04-18T02:48:01.378Z,54.90
2023-04-18T02:49:03.023Z,54.57
2023-04-18T02:50:04.892Z,54.79
2023-04-18T02:51:06.906Z,54.82
2023-04-18T02:52:08.444Z,54.46
2023-04-18T02:53:09.973Z,54.61
2023-04-18T02:54:11.653Z,54.87
2023-04-18T02:55:13.416Z,54.55
2023-04-18T02:56:17.003Z,54.62
2023-04-18T02:57:18.610Z,55.07
2023-04-18T02:58:20.207Z,55.07
2023-04-18T02:59:21.723Z,55.15
2023-04-18T03:00:23.624Z,55.01
2023-04-18T03:01:25.229Z,55.51
2023-04-18T03:02:26.902Z,55.66
2023-04-18T03:03:28.474Z,55.48
2023-04-18T03:04:30.066Z,55.32
2023-04-18T03:05:31.622Z,55.89
2023-04-18T03:06:33.193Z,55.47
2023-04-18T03:07:34.742Z,55.71
2023-04-18T03:08:36.303Z,55.66
2023-04-18T03:09:37.827Z,55.64
2023-04-18T03:10:39.940Z,55.61
2023-04-18T03:11:41.675Z,56.04
2023-04-18T03:12:43.286Z,55.76
2023-04-18T03:13:44.805Z,55.97
2023-04-18T03:14:46.343Z,55.59
2023-04-18T03:15:47.922Z,55.79
2023-04-18T03:16:49.467Z,55.61
2023-04-18T03:17:51.056Z,55.85
2023-04-18T03:18:52.598Z,56.39
2023-04-18T03:19:54.318Z,55.98
2023-04-18T03:20:55.924Z,56.28
2023-04-18T03:21:57.464Z,56.41
2023-04-18T03:22:59.018Z,56.56
2023-04-18T03:24:00.676Z,56.07
2023-04-18T03:25:02.191Z,55.83
2023-04-18T03:26:05.827Z,55.98
2023-04-18T03:27:07.429Z,56.61
2023-04-18T03:28:08.995Z,56.08
2023-04-18T03:29:10.540Z,56.44
2023-04-18T03:30:12.152Z,56.08
2023-04-18T03:31:13.849Z,56.32
2023-04-18T03:32:15.570Z,56.13
2023-04-18T03:33:17.198Z,55.90
2023-04-18T03:34:18.759Z,56.26
2023-04-18T03:35:20.845Z,55.78
2023-04-18T03:36:25.681Z,55.50
2023-04-18T03:37:27.341Z,55.53
2023-04-18T03:38:28.898Z,55.75
2023-04-18T03:39:30.562Z,55.39
2023-04-18T03:40:32.263Z,55.26
2023-04-18T03:41:34.154Z,55.66
2023-04-18T03:42:36.242Z,56.13
2023-04-18T03:43:37.906Z,55.21
2023-04-18T03:44:39.418Z,55.82
2023-04-18T03:45:41.140Z,55.44
2023-04-18T03:46:43.090Z,55.32
2023-04-18T03:47:44.675Z,55.11
2023-04-18T03:48:46.184Z,55.12
2023-04-18T03:49:47.693Z,55.24
2023-04-18T03:50:49.825Z,55.54
2023-04-18T03:51:52.331Z,55.30
2023-04-18T03:52:53.958Z,55.52
2023-04-18T03:53:55.559Z,55.39
2023-04-18T03:54:57.061Z,55.31
2023-04-18T03:55:58.578Z,55.93
2023-04-18T03:57:00.446Z,55.80
2023-04-18T03:58:02.110Z,55.65
2023-04-18T03:59:03.659Z,55.94
2023-04-18T04:00:07.987Z,55.86
2023-04-18T04:01:09.584Z,55.76
2023-04-18T04:02:11.218Z,55.99
2023-04-18T04:03:12.911Z,55.76
2023-04-18T04:04:15.670Z,56.14
2023-04-18T04:05:17.372Z,54.94
2023-04-18T04:06:18.894Z,55.09
2023-04-18T04:07:20.738Z,55.39
2023-04-18T04:08:22.247Z,56.10
2023-04-18T04:09:23.779Z,56.02
2023-04-18T04:10:25.564Z,55.95
2023-04-18T04:11:27.192Z,55.93
2023-04-18T04:12:29.119Z,56.59
2023-04-18T04:13:30.712Z,55.87
2023-04-18T04:14:32.675Z,55.76
2023-04-18T04:15:34.249Z,55.55
2023-04-18T04:16:35.887Z,55.79
2023-04-18T04:17:37.501Z,55.80
2023-04-18T04:18:39.082Z,56.09
2023-04-18T04:19:40.590Z,55.92
2023-04-18T04:20:42.103Z,55.84
2023-04-18T04:21:43.629Z,56.07
2023-04-18T04:22:45.176Z,55.94
2023-04-18T04:23:46.745Z,56.09
2023-04-18T04:24:48.311Z,55.92
2023-04-18T04:25:49.814Z,55.78
2023-04-18T04:26:51.429Z,55.92
2023-04-18T04:27:53.715Z,55.86
2023-04-18T04:28:55.249Z,56.11
2023-04-18T04:29:56.793Z,56.15
2023-04-18T04:30:58.333Z,56.25
2023-04-18T04:32:00.077Z,56.11
2023-04-18T04:33:01.994Z,56.52
2023-04-18T04:34:04.954Z,56.44
2023-04-18T04:35:08.406Z,55.15
2023-04-18T04:36:10.050Z,55.84
2023-04-18T04:37:14.017Z,55.93
2023-04-18T04:38:16.001Z,56.34
2023-04-18T04:39:17.537Z,56.99
2023-04-18T04:40:19.215Z,57.07
2023-04-18T04:41:22.364Z,56.91
2023-04-18T04:42:25.203Z,56.72
2023-04-18T04:43:28.760Z,56.50
2023-04-18T04:44:31.333Z,56.89
2023-04-18T04:45:33.271Z,57.67
2023-04-18T04:46:34.852Z,57.34
2023-04-18T04:47:36.738Z,56.93
2023-04-18T04:48:38.386Z,56.97
2023-04-18T04:49:39.882Z,57.10
2023-04-18T04:50:41.816Z,56.92
2023-04-18T04:51:44.347Z,56.88
2023-04-18T04:52:45.960Z,56.52
2023-04-18T04:53:47.543Z,56.20
2023-04-18T04:54:50.646Z,56.79
2023-04-18T04:55:52.207Z,56.85
2023-04-18T04:56:53.752Z,56.29
2023-04-18T04:57:56.089Z,56.44
2023-04-18T04:58:57.624Z,56.33
2023-04-18T04:59:59.188Z,56.62
2023-04-18T05:01:00.848Z,56.63
2023-04-18T05:02:02.515Z,56.61
2023-04-18T05:03:04.357Z,56.18
2023-04-18T05:04:06.281Z,56.59
2023-04-18T05:05:08.205Z,56.63
2023-04-18T05:06:09.741Z,56.39
2023-04-18T05:07:11.275Z,56.53
2023-04-18T05:08:12.818Z,56.63
2023-04-18T05:09:14.346Z,56.58
2023-04-18T05:10:15.926Z,56.67
2023-04-18T05:11:17.521Z,56.63
2023-04-18T05:12:19.041Z,56.41
2023-04-18T05:13:20.656Z,56.79
2023-04-18T05:14:22.702Z,56.28
2023-04-18T05:15:24.868Z,56.15
2023-04-18T05:16:26.527Z,56.79
2023-04-18T05:17:28.124Z,56.33
2023-04-18T05:18:29.715Z,56.09
2023-04-18T05:19:31.251Z,56.40
2023-04-18T05:20:32.764Z,56.46
2023-04-18T05:21:34.459Z,56.44
2023-04-18T05:22:36.158Z,56.72
2023-04-18T05:23:37.706Z,56.93
2023-04-18T05:24:39.557Z,56.66
2023-04-18T05:25:41.097Z,56.16
2023-04-18T05:26:43.053Z,56.72
2023-04-18T05:27:45.422Z,57.43
2023-04-18T05:28:46.969Z,57.03
2023-04-18T05:29:50.252Z,56.83
2023-04-18T05:30:52.030Z,56.72
2023-04-18T05:31:53.732Z,56.50
2023-04-18T05:32:55.293Z,57.17
2023-04-18T05:33:56.930Z,56.63
2023-04-18T05:34:58.468Z,56.80
2023-04-18T05:35:59.983Z,56.54
2023-04-18T05:37:01.534Z,56.59
2023-04-18T05:38:03.258Z,56.52
2023-04-18T05:39:05.104Z,56.72
2023-04-18T05:40:09.048Z,56.32
2023-04-18T05:41:10.592Z,56.44
2023-04-18T05:42:12.302Z,56.31
2023-04-18T05:43:13.866Z,56.13
2023-04-18T05:44:16.139Z,56.24
2023-04-18T05:45:17.733Z,56.55
2023-04-18T05:46:19.309Z,56.15
2023-04-18T05:47:21.228Z,56.13
2023-04-18T05:48:23.390Z,56.39
2023-04-18T05:49:24.916Z,56.08
2023-04-18T05:50:26.509Z,56.23
2023-04-18T05:51:28.668Z,56.62
2023-04-18T05:52:31.296Z,56.27
2023-04-18T05:53:32.840Z,56.10
2023-04-18T05:54:34.364Z,56.37
2023-04-18T05:55:36.035Z,56.45
2023-04-18T05:56:37.546Z,56.33
2023-04-18T05:57:40.562Z,56.58
2023-04-18T05:58:42.101Z,56.35
2023-04-18T05:59:43.645Z,56.93
2023-04-18T06:00:45.339Z,57.51
2023-04-18T06:01:46.875Z,57.04
2023-04-18T06:02:49.736Z,57.63
2023-04-18T06:03:51.543Z,57.20
2023-04-18T06:04:53.463Z,55.94
2023-04-18T06:05:55.277Z,56.00
2023-04-18T06:06:56.831Z,56.77
2023-04-18T06:07:58.389Z,56.69
2023-04-18T06:08:59.889Z,57.12
2023-04-18T06:10:01.451Z,57.14
2023-04-18T06:11:03.186Z,56.56
2023-04-18T06:12:04.831Z,56.83
2023-04-18T06:13:06.369Z,57.19
2023-04-18T06:14:07.974Z,56.91
2023-04-18T06:15:10.319Z,57.58
2023-04-18T06:16:11.963Z,57.94
2023-04-18T06:17:13.987Z,57.68
2023-04-18T06:18:15.529Z,57.78
2023-04-18T06:19:17.051Z,57.12
2023-04-18T06:20:18.778Z,57.36
2023-04-18T06:21:20.890Z,57.89
2023-04-18T06:22:22.423Z,58.18
2023-04-18T06:23:23.942Z,58.13
2023-04-18T06:24:25.835Z,58.30
2023-04-18T06:25:27.523Z,57.46
2023-04-18T06:26:30.525Z,57.43
2023-04-18T06:27:32.207Z,56.73
2023-04-18T06:28:33.772Z,56.95
2023-04-18T06:29:36.210Z,57.43
2023-04-18T06:30:39.076Z,57.29
2023-04-18T06:31:42.135Z,57.59
2023-04-18T06:32:43.989Z,57.52
2023-04-18T06:33:45.651Z,57.06
2023-04-18T06:34:47.214Z,57.26
2023-04-18T06:35:48.791Z,57.70
2023-04-18T06:36:50.445Z,57.99
2023-04-18T06:37:52.100Z,56.90
2023-04-18T06:38:53.646Z,57.00
2023-04-18T06:39:55.181Z,56.81
2023-04-18T06:40:56.809Z,56.80
2023-04-18T06:41:58.336Z,56.66
2023-04-18T06:42:59.902Z,57.71
2023-04-18T06:44:03.421Z,57.53
2023-04-18T06:45:06.608Z,56.31
2023-04-18T06:46:08.176Z,56.75
2023-04-18T06:47:09.775Z,56.32
2023-04-18T06:48:11.297Z,56.35
2023-04-18T06:49:12.788Z,56.70
2023-04-18T06:50:14.489Z,56.62
2023-04-18T06:51:16.219Z,56.37
2023-04-18T06:52:17.716Z,56.47
2023-04-18T06:53:19.265Z,55.77
2023-04-18T06:54:21.028Z,55.89
2023-04-18T06:55:23.204Z,55.82
2023-04-18T06:56:24.729Z,55.84
2023-04-18T06:57:26.342Z,55.80
2023-04-18T06:58:27.931Z,55.10
2023-04-18T06:59:29.449Z,55.46
2023-04-18T07:00:31.096Z,55.41
2023-04-18T07:01:35.520Z,55.38
2023-04-18T07:02:37.878Z,56.07
2023-04-18T07:03:39.719Z,55.37
2023-04-18T07:04:41.545Z,55.05
2023-04-18T07:05:43.548Z,54.87
2023-04-18T07:06:45.065Z,55.15
2023-04-18T07:07:46.633Z,54.99
2023-04-18T07:08:48.186Z,55.57
2023-04-18T07:09:50.140Z,55.22
2023-04-18T07:10:51.747Z,54.95
2023-04-18T07:11:53.252Z,54.20
2023-04-18T07:12:54.806Z,53.82
2023-04-18T07:13:56.569Z,53.85
2023-04-18T07:14:58.162Z,53.52
2023-04-18T07:15:59.813Z,53.82
2023-04-18T07:17:01.804Z,53.52
2023-04-18T07:18:03.574Z,53.09
2023-04-18T07:19:06.640Z,52.60
2023-04-18T07:20:08.877Z,52.98
2023-04-18T07:21:10.490Z,52.28
2023-04-18T07:22:12.074Z,51.96
2023-04-18T07:23:13.612Z,51.39
2023-04-18T07:24:15.440Z,50.86
2023-04-18T07:25:17.390Z,49.86
2023-04-18T07:26:19.077Z,50.78
2023-04-18T07:27:20.666Z,50.38
2023-04-18T07:28:22.218Z,50.75
2023-04-18T07:29:23.787Z,50.49
2023-04-18T07:30:26.382Z,50.49
2023-04-18T07:31:28.752Z,50.75
2023-04-18T07:32:30.401Z,49.83
2023-04-18T07:33:33.973Z,49.86
2023-04-18T07:34:36.157Z,49.36
2023-04-18T07:35:37.750Z,49.01
2023-04-18T07:36:39.470Z,48.90
2023-04-18T07:37:40.982Z,48.93
2023-04-18T07:38:42.624Z,49.57
2023-04-18T07:39:44.141Z,49.95
2023-04-18T07:40:45.793Z,49.97
2023-04-18T07:41:47.337Z,49.73
2023-04-18T07:42:48.895Z,49.55
2023-04-18T07:43:50.488Z,49.42
2023-04-18T07:44:57.089Z,49.19
2023-04-18T07:45:58.705Z,48.83
2023-04-18T07:47:00.310Z,50.42
2023-04-18T07:48:02.494Z,50.84
2023-04-18T07:49:04.504Z,50.50
2023-04-18T07:50:06.589Z,51.41
2023-04-18T07:51:08.455Z,50.89
2023-04-18T07:52:10.054Z,50.95
2023-04-18T07:53:11.653Z,50.77
2023-04-18T07:54:13.256Z,50.93
2023-04-18T07:55:14.925Z,51.30
2023-04-18T07:56:16.474Z,51.46
2023-04-18T07:57:18.043Z,50.98
2023-04-18T07:58:19.636Z,51.06
2023-04-18T07:59:21.222Z,51.29
2023-04-18T08:00:22.745Z,51.16
2023-04-18T08:01:27.028Z,50.94
2023-04-18T08:02:28.787Z,51.62
2023-04-18T08:03:30.768Z,50.63
2023-04-18T08:04:33.015Z,50.73
2023-04-18T08:05:34.973Z,51.08
2023-04-18T08:06:36.899Z,51.47
2023-04-18T08:07:38.419Z,51.33
2023-04-18T08:08:40.131Z,50.51
2023-04-18T08:09:41.774Z,50.60
2023-04-18T08:10:43.310Z,50.99
2023-04-18T08:11:45.094Z,50.69
2023-04-18T08:12:46.603Z,49.97
2023-04-18T08:13:48.094Z,50.10
2023-04-18T08:14:49.595Z,50.33
2023-04-18T08:15:51.193Z,50.05
2023-04-18T08:16:52.800Z,50.31
2023-04-18T08:17:54.767Z,50.09
2023-04-18T08:18:56.682Z,50.66
2023-04-18T08:19:58.212Z,50.73
2023-04-18T08:20:59.764Z,50.24
2023-04-18T08:22:10.646Z,50.31
2023-04-18T08:23:13.298Z,52.38
2023-04-18T08:24:15.024Z,51.05
2023-04-18T08:25:16.794Z,51.12
2023-04-18T08:26:18.543Z,50.92
2023-04-18T08:27:20.055Z,50.54
2023-04-18T08:28:21.562Z,51.08
2023-04-18T08:29:23.130Z,50.83
2023-04-18T08:30:24.713Z,51.74
2023-04-18T08:31:26.460Z,50.97
2023-04-18T08:32:28.154Z,50.87
2023-04-18T08:33:29.759Z,50.89
2023-04-18T08:34:33.407Z,51.36
2023-04-18T08:35:35.761Z,50.87
2023-04-18T08:36:37.266Z,50.77
2023-04-18T08:37:39.123Z,50.84
2023-04-18T08:38:40.756Z,50.73
2023-04-18T08:39:42.312Z,50.85
2023-04-18T08:40:44.253Z,50.23
2023-04-18T08:41:45.891Z,50.22
2023-04-18T08:42:47.456Z,50.69
2023-04-18T08:43:49.245Z,49.35
2023-04-18T08:44:51.425Z,48.98
2023-04-18T08:45:58.401Z,49.53
2023-04-18T08:47:01.550Z,49.37
2023-04-18T08:48:03.781Z,49.87
2023-04-18T08:49:06.259Z,49.95
2023-04-18T08:50:09.256Z,49.36
2023-04-18T08:51:11.326Z,49.67
2023-04-18T08:52:13.941Z,50.32
2023-04-18T08:53:17.803Z,50.40
2023-04-18T08:54:19.746Z,50.49
2023-04-18T08:55:24.386Z,50.01
2023-04-18T08:56:27.245Z,50.01
2023-04-18T08:57:30.133Z,49.86
2023-04-18T08:58:33.676Z,49.93
2023-04-18T08:59:37.979Z,50.33
2023-04-18T09:00:39.595Z,50.38
2023-04-18T09:01:56.679Z,51.02
2023-04-18T09:02:59.121Z,50.83
2023-04-18T09:04:00.851Z,51.21
2023-04-18T09:05:14.341Z,51.26
2023-04-18T09:06:18.984Z,51.31
2023-04-18T09:07:22.546Z,50.66
2023-04-18T09:08:24.460Z,50.57
2023-04-18T09:09:27.694Z,50.68
2023-04-18T09:10:31.165Z,50.82
2023-04-18T09:11:34.466Z,50.99
2023-04-18T09:12:52.226Z,51.49
2023-04-18T09:13:55.990Z,50.99
2023-04-18T09:15:11.120Z,50.70
2023-04-18T09:16:13.530Z,49.58
2023-04-18T09:17:18.365Z,49.35
2023-04-18T09:18:19.977Z,49.80
2023-04-18T09:19:21.858Z,49.68
2023-04-18T09:20:35.505Z,50.41
2023-04-18T09:21:39.111Z,49.84
2023-04-18T09:22:54.287Z,49.80
2023-04-18T09:24:07.926Z,48.94
2023-04-18T09:25:09.775Z,49.57
2023-04-18T09:26:11.312Z,49.70
2023-04-18T09:27:15.652Z,50.00
2023-04-18T09:28:30.515Z,51.07
2023-04-18T09:29:46.724Z,51.18
2023-04-18T09:30:51.760Z,50.51
2023-04-18T09:32:02.354Z,50.32
2023-04-18T09:33:05.638Z,49.99
2023-04-18T09:34:19.791Z,50.37
2023-04-18T09:35:24.768Z,49.94
2023-04-18T09:36:31.414Z,50.67
2023-04-18T09:37:33.081Z,49.78
2023-04-18T09:38:41.241Z,49.59
2023-04-18T09:39:43.851Z,49.57
2023-04-18T09:40:45.425Z,49.13
2023-04-18T09:42:00.051Z,49.56
2023-04-18T09:43:02.013Z,49.58
2023-04-18T09:44:15.660Z,49.55
2023-04-18T09:45:17.474Z,49.22
2023-04-18T09:46:19.485Z,49.44
2023-04-18T09:47:21.126Z,50.23
2023-04-18T09:48:22.745Z,49.98
2023-04-18T09:49:24.377Z,50.20
2023-04-18T09:50:26.042Z,50.07
2023-04-18T09:51:27.586Z,49.73
2023-04-18T09:52:41.556Z,50.62
2023-04-18T09:53:50.428Z,50.31
2023-04-18T09:54:58.239Z,49.95
2023-04-18T09:55:59.764Z,49.96
2023-04-18T09:57:01.798Z,50.02
2023-04-18T09:58:03.747Z,50.93
2023-04-18T09:59:09.086Z,50.64
2023-04-18T10:00:20.441Z,50.29
2023-04-18T10:01:23.192Z,50.23
2023-04-18T10:02:25.081Z,50.38
2023-04-18T10:03:32.717Z,50.55
2023-04-18T10:04:34.421Z,50.36
2023-04-18T10:05:37.339Z,51.36
2023-04-18T10:06:40.028Z,51.55
2023-04-18T10:07:42.028Z,51.07
2023-04-18T10:08:46.295Z,51.00
2023-04-18T10:09:48.038Z,50.63
2023-04-18T10:10:49.556Z,51.36
2023-04-18T10:11:52.160Z,51.18
2023-04-18T10:12:54.822Z,51.44
2023-04-18T10:13:57.083Z,51.41
2023-04-18T10:14:58.610Z,51.79
2023-04-18T10:16:00.198Z,51.17
2023-04-18T10:17:02.271Z,51.24
2023-04-18T10:18:15.667Z,51.39
2023-04-18T10:19:28.095Z,51.58
2023-04-18T10:20:30.606Z,50.83
2023-04-18T10:21:32.154Z,51.05
2023-04-18T10:22:34.021Z,51.11
2023-04-18T10:23:36.598Z,51.49
2023-04-18T10:24:48.454Z,50.50
2023-04-18T10:25:50.521Z,50.50
2023-04-18T10:26:52.349Z,50.43
2023-04-18T10:27:54.777Z,50.83
2023-04-18T10:28:57.640Z,50.79
2023-04-18T10:29:59.164Z,50.52
2023-04-18T10:31:05.629Z,50.61
2023-04-18T10:32:07.449Z,50.62
2023-04-18T10:33:35.800Z,50.66
2023-04-18T10:34:43.719Z,50.24
2023-04-18T10:36:08.707Z,50.99
2023-04-18T10:37:12.776Z,50.42
2023-04-18T10:38:17.344Z,49.67
2023-04-18T10:39:22.843Z,50.03
2023-04-18T10:40:34.208Z,50.64
2023-04-18T10:41:38.340Z,49.85
2023-04-18T10:42:48.493Z,50.41
2023-04-18T10:44:13.390Z,50.49
2023-04-18T10:45:21.089Z,50.19
2023-04-18T10:46:31.937Z,49.70
2023-04-18T10:47:34.513Z,50.22
2023-04-18T10:48:39.155Z,49.84
2023-04-18T10:49:40.783Z,50.39
2023-04-18T10:51:13.972Z,50.35
2023-04-18T10:52:15.679Z,50.47
2023-04-18T10:53:17.217Z,50.34
2023-04-18T10:54:42.146Z,50.75
2023-04-18T10:55:43.654Z,51.14
2023-04-18T10:56:54.771Z,50.52
2023-04-18T10:57:56.834Z,50.84
2023-04-18T10:59:01.183Z,50.62
2023-04-18T11:00:04.289Z,50.27
2023-04-18T11:01:06.025Z,50.48
2023-04-18T11:02:30.270Z,50.90
2023-04-18T11:03:35.374Z,51.47
2023-04-18T11:04:37.819Z,51.03
2023-04-18T11:05:39.630Z,51.07
2023-04-18T11:06:49.450Z,51.63
2023-04-18T11:07:51.198Z,50.71
2023-04-18T11:08:53.282Z,50.88
2023-04-18T11:09:54.883Z,50.88
2023-04-18T11:11:04.145Z,50.81
2023-04-18T11:12:06.522Z,51.38
2023-04-18T11:13:08.380Z,51.42
2023-04-18T11:14:10.001Z,51.16
2023-04-18T11:15:14.290Z,50.89
2023-04-18T11:16:41.972Z,49.89
2023-04-18T11:17:43.798Z,49.47
2023-04-18T11:18:45.555Z,49.73
2023-04-18T11:19:47.472Z,50.11
2023-04-18T11:20:50.216Z,49.70
2023-04-18T11:21:51.806Z,49.25
2023-04-18T11:22:57.523Z,48.96
2023-04-18T11:23:59.174Z,49.47
2023-04-18T11:25:00.908Z,49.45
2023-04-18T11:26:03.422Z,50.28
2023-04-18T11:27:05.160Z,50.17
2023-04-18T11:28:06.736Z,50.22
2023-04-18T11:29:08.254Z,49.79
2023-04-18T11:30:10.332Z,50.42
2023-04-18T11:31:11.850Z,50.03
2023-04-18T11:32:13.471Z,50.22
2023-04-18T11:33:15.185Z,50.15
2023-04-18T11:34:16.799Z,50.57
2023-04-18T11:35:18.344Z,50.28
2023-04-18T11:36:19.841Z,50.30
2023-04-18T11:37:21.685Z,50.22
2023-04-18T11:38:28.042Z,50.54
2023-04-18T11:39:29.607Z,50.19
2023-04-18T11:40:31.169Z,50.08
2023-04-18T11:41:32.696Z,50.62
2023-04-18T11:42:34.931Z,50.57
2023-04-18T11:43:36.678Z,50.62
2023-04-18T11:44:39.982Z,50.29
2023-04-18T11:45:53.666Z,50.40
2023-04-18T11:46:55.392Z,50.50
2023-04-18T11:47:58.340Z,50.42
2023-04-18T11:48:59.956Z,50.90
2023-04-18T11:50:02.856Z,50.50
2023-04-18T11:51:05.095Z,49.50
2023-04-18T11:52:11.426Z,50.14
2023-04-18T11:53:12.954Z,50.33
2023-04-18T11:54:36.527Z,50.22
2023-04-18T11:55:38.058Z,49.50
2023-04-18T11:56:48.602Z,49.62
2023-04-18T11:57:56.578Z,49.45
2023-04-18T11:58:58.110Z,49.81
2023-04-18T12:00:00.878Z,50.02
2023-04-18T12:01:25.610Z,49.83
2023-04-18T12:02:28.559Z,49.42
2023-04-18T12:03:30.316Z,49.45
2023-04-18T12:04:50.036Z,49.71
2023-04-18T12:05:59.173Z,49.86
2023-04-18T12:07:00.946Z,49.57
2023-04-18T12:08:06.367Z,49.37
2023-04-18T12:09:07.872Z,48.94
2023-04-18T12:10:23.460Z,49.79
2023-04-18T12:11:25.089Z,49.71
2023-04-18T12:12:27.019Z,49.10
2023-04-18T12:13:32.114Z,49.70
2023-04-18T12:14:35.677Z,50.04
2023-04-18T12:15:41.038Z,50.13
2023-04-18T12:16:42.624Z,49.66
2023-04-18T12:17:45.240Z,49.60
2023-04-18T12:18:47.258Z,49.24
2023-04-18T12:19:49.900Z,47.82
2023-04-18T12:20:54.264Z,47.84
2023-04-18T12:21:56.793Z,47.66
2023-04-18T12:22:58.495Z,47.98
2023-04-18T12:24:00.588Z,47.98
2023-04-18T12:25:10.454Z,47.76
2023-04-18T12:26:18.153Z,47.57
2023-04-18T12:27:19.646Z,47.80
2023-04-18T12:28:21.204Z,47.69
2023-04-18T12:29:22.773Z,48.02
2023-04-18T12:30:28.947Z,47.84
2023-04-18T12:31:30.577Z,47.23
2023-04-18T12:32:32.137Z,47.17
2023-04-18T12:33:34.171Z,47.36
2023-04-18T12:34:35.889Z,46.85
2023-04-18T12:35:38.632Z,47.57
2023-04-18T12:36:40.439Z,47.52
2023-04-18T12:37:42.058Z,47.46
2023-04-18T12:38:43.622Z,47.11
2023-04-18T12:39:45.187Z,47.37
2023-04-18T12:40:46.833Z,47.11
2023-04-18T12:41:49.773Z,46.54
2023-04-18T12:42:51.861Z,46.02
2023-04-18T12:43:53.394Z,46.33
2023-04-18T12:44:54.956Z,46.42
2023-04-18T12:45:56.562Z,46.45
2023-04-18T12:46:58.160Z,46.78
2023-04-18T12:47:59.819Z,46.92
2023-04-18T12:49:01.538Z,46.38
2023-04-18T12:50:03.172Z,46.20
2023-04-18T12:51:04.776Z,46.86
2023-04-18T12:52:06.373Z,47.52
2023-04-18T12:53:07.915Z,47.15
2023-04-18T12:54:09.504Z,47.41
2023-04-18T12:55:11.169Z,47.55
2023-04-18T12:56:12.713Z,47.67
2023-04-18T12:57:14.260Z,47.92
2023-04-18T12:58:18.620Z,47.53
2023-04-18T12:59:20.258Z,47.51
2023-04-18T13:00:31.512Z,47.30
2023-04-18T13:01:33.181Z,47.30
2023-04-18T13:02:37.271Z,47.86
2023-04-18T13:03:39.176Z,47.68
2023-04-18T13:04:41.251Z,47.72
2023-04-18T13:05:43.004Z,48.24
2023-04-18T13:06:44.560Z,48.22
2023-04-18T13:07:48.353Z,47.94
2023-04-18T13:08:49.849Z,47.69
2023-04-18T13:09:51.378Z,47.76
2023-04-18T13:10:52.917Z,48.04
2023-04-18T13:11:54.443Z,47.95
2023-04-18T13:12:56.491Z,48.03
2023-04-18T13:13:58.018Z,48.75
2023-04-18T13:14:59.599Z,48.36
2023-04-18T13:16:01.380Z,49.03
2023-04-18T13:17:03.083Z,49.25
2023-04-18T13:18:06.727Z,49.02
2023-04-18T13:19:08.507Z,49.06
2023-04-18T13:20:10.832Z,49.29
2023-04-18T13:21:12.404Z,49.13
2023-04-18T13:22:14.018Z,49.61
2023-04-18T13:23:15.561Z,49.65
2023-04-18T13:24:17.070Z,49.91
2023-04-18T13:25:18.813Z,50.01
2023-04-18T13:26:20.655Z,49.70
2023-04-18T13:27:22.254Z,49.97
2023-04-18T13:28:23.757Z,50.09
2023-04-18T13:29:25.341Z,50.39